Latest Weather Observations for Bunbury

IDW60801

Issued at 4:33 pm WST Thursday 28 July 2016 (issued every 30 minutes, with the page automatically refreshed every 10 minutes)

About weather observations | Map of weather stations | Latest weather observations for WA | Other Formats
Station Details ID: 009965 Name: BUNBURY Lat: -33.36 Lon: 115.64 Height: 5.2 m
Data from the previous 72 hours. | See also: Recent months at Bunbury
Date/Time
WST
Temp
°C
App
Temp
°C
Dew
Point
°C
Rel
Hum
%
Delta-T
°C
Wind Press
QNH
hPa
Press
MSL
hPa
Rain since
9am
mm
Dir  Spd
km/h
Gust
km/h
Spd
kts
Gust
kts
28/04:30pm 18.2 18.5 13.3 73 2.8 NW 4 6 2 3 1019.7 1019.7 0.0
28/04:00pm 18.3 17.9 13.0 71 3.0 WNW 7 9 4 5 1019.7 1019.7 0.0
28/03:30pm 18.7 18.3 13.1 70 3.2 NW 7 11 4 6 1019.6 1019.6 0.0
28/03:00pm 18.8 18.0 12.8 68 3.4 NW 9 13 5 7 1019.5 1019.5 0.0
28/02:30pm 18.4 17.0 12.2 67 3.4 NW 11 13 6 7 1019.6 1019.6 0.0
28/02:00pm 19.5 19.0 12.0 62 4.2 NNW 6 9 3 5 1019.6 1019.6 0.0
28/01:30pm 19.1 18.6 11.9 63 4.0 NW 6 9 3 5 1019.9 1019.9 0.0
28/01:00pm 19.3 18.5 11.8 62 4.1 NW 7 9 4 5 1020.3 1020.3 0.0
28/12:30pm 18.8 17.9 11.4 62 4.0 N 7 13 4 7 1020.6 1020.6 0.0
28/12:00pm 18.1 17.2 11.2 64 3.7 N 7 9 4 5 1021.1 1021.1 0.0
28/11:30am 17.6 16.7 10.7 64 3.7 NNE 6 9 3 5 1021.6 1021.6 0.0
28/11:00am 16.6 14.9 10.0 65 3.5 NNE 9 11 5 6 1022.0 1022.0 0.0
28/10:30am 15.8 14.0 9.5 66 3.3 NNE 9 13 5 7 1022.3 1022.3 0.0
28/10:00am 15.1 13.8 10.1 72 2.6 NE 7 11 4 6 1022.5 1022.5 0.0
28/09:30am 13.6 12.6 10.2 80 1.8 NE 6 7 3 4 1022.6 1022.6 0.0
28/09:00am 12.9 12.7 10.3 84 1.3 NE 2 4 1 2 1022.5 1022.5 0.0
28/08:30am 12.2 11.2 10.4 89 0.9 ENE 6 7 3 4 1022.3 1022.3 0.0
28/08:00am 11.4 11.1 10.1 92 0.7 ESE 2 4 1 2 1022.1 1022.1 0.0
28/07:30am 10.5 9.6 9.4 93 0.5 NE 4 6 2 3 1022.0 1022.0 0.0
28/07:00am 10.4 10.3 9.3 93 0.5 CALM 0 0 0 0 1021.9 1021.9 0.0
28/06:30am 9.9 8.9 8.8 93 0.5 ENE 4 4 2 2 1021.6 1021.6 0.0
28/06:00am 10.3 10.1 9.2 93 0.5 CALM 0 0 0 0 1021.8 1021.8 0.0
28/05:30am 10.1 9.1 9.0 93 0.5 E 4 6 2 3 1021.4 1021.4 0.0
28/05:00am 10.1 9.5 9.0 93 0.5 NE 2 6 1 3 1021.4 1021.4 0.0
28/04:30am 10.1 9.1 9.0 93 0.5 ENE 4 6 2 3 1021.7 1021.7 0.0
28/04:00am 10.2 10.0 9.1 93 0.5 CALM 0 2 0 1 1021.9 1021.9 0.0
28/03:30am 10.2 10.0 9.1 93 0.5 CALM 0 0 0 0 1022.3 1022.3 0.0
28/03:00am 10.2 10.0 9.1 93 0.5 CALM 0 0 0 0 1022.2 1022.2 0.0
28/02:30am 10.0 9.8 8.9 93 0.5 CALM 0 0 0 0 1022.5 1022.5 0.0
28/02:00am 10.3 10.1 9.2 93 0.5 CALM 0 0 0 0 1022.6 1022.6 0.0
28/01:30am 10.6 10.5 9.4 92 0.6 CALM 0 0 0 0 1022.4 1022.4 0.0
28/01:00am 10.1 9.9 8.9 92 0.6 CALM 0 0 0 0 1022.5 1022.5 0.0
28/12:30am 10.3 10.1 9.1 92 0.6 CALM 0 2 0 1 1022.5 1022.5 0.0
28/12:00am 10.1 9.1 8.9 92 0.6 ENE 4 7 2 4 1022.6 1022.6 0.0
 
Date/Time
WST
Temp
°C
App
Temp
°C
Dew
Point
°C
Rel
Hum
%
Delta-T
°C
Wind Press
QNH
hPa
Press
MSL
hPa
Rain since
9am
mm
Dir  Spd
km/h
Gust
km/h
Spd
kts
Gust
kts
27/11:30pm 10.7 10.6 9.3 91 0.7 CALM 0 2 0 1 1023.2 1023.2 0.0
27/11:00pm 10.6 10.1 9.2 91 0.7 ESE 2 6 1 3 1023.4 1023.4 0.0
27/10:30pm 10.9 9.5 9.7 92 0.6 ESE 7 9 4 5 1023.4 1023.4 0.0
27/10:00pm 11.0 10.6 9.8 92 0.6 ESE 2 4 1 2 1024.0 1024.0 0.0
27/09:30pm 11.1 10.7 9.9 92 0.6 SE 2 4 1 2 1024.4 1024.4 0.0
27/09:00pm 11.0 11.0 9.8 92 0.6 CALM 0 0 0 0 1024.3 1024.3 0.0
27/08:30pm 11.0 11.0 9.8 92 0.6 CALM 0 2 0 1 1024.3 1024.3 0.0
27/08:00pm 10.9 10.4 9.5 91 0.7 SE 2 4 1 2 1024.5 1024.5 0.0
27/07:30pm 11.1 11.0 9.5 90 0.8 CALM 0 0 0 0 1024.2 1024.2 0.0
27/07:00pm 11.7 11.7 9.8 88 1.0 CALM 0 0 0 0 1024.1 1024.1 0.0
27/06:30pm 12.4 12.1 10.0 85 1.2 S 2 2 1 1 1024.1 1024.1 0.0
27/06:00pm 13.3 12.7 10.5 83 1.4 WSW 4 6 2 3 1024.2 1024.2 0.0
27/05:30pm 13.8 13.6 10.4 80 1.8 S 2 4 1 2 1023.7 1023.7 0.0
27/05:00pm 14.6 13.6 10.4 76 2.2 WSW 6 7 3 4 1023.6 1023.6 0.0
27/04:30pm 15.2 15.3 10.2 72 2.6 CALM 0 2 0 1 1023.5 1023.5 0.0
27/04:00pm 15.8 15.6 10.6 71 2.7 NW 2 4 1 2 1023.5 1023.5 0.0
27/03:30pm 16.4 16.3 10.7 69 3.0 WNW 2 4 1 2 1023.7 1023.7 0.0
27/03:00pm 16.3 15.3 10.2 67 3.2 NNW 6 9 3 5 1023.6 1023.6 0.0
27/02:30pm 16.5 15.1 9.7 64 3.6 N 7 11 4 6 1023.4 1023.4 0.0
27/02:00pm 16.5 15.2 9.9 65 3.4 N 7 11 4 6 1023.8 1023.8 0.0
27/01:30pm 16.4 15.1 10.0 66 3.4 NNE 7 13 4 7 1024.3 1024.3 0.0
27/01:00pm 16.5 15.4 10.1 66 3.4 N 6 9 3 5 1024.8 1024.8 0.0
27/12:30pm 16.5 15.4 10.6 68 3.1 NE 7 11 4 6 1025.3 1025.3 0.0
27/12:00pm 16.0 14.7 10.1 68 3.1 NE 7 13 4 7 1025.8 1025.8 0.0
27/11:30am 15.4 13.6 9.5 68 3.0 NNE 9 15 5 8 1026.3 1026.3 0.0
27/11:00am 15.7 14.4 9.8 68 3.1 NNE 7 13 4 7 1026.8 1026.8 0.0
27/10:30am 14.9 13.6 10.1 73 2.5 NE 7 13 4 7 1026.9 1026.9 0.0
27/10:00am 13.8 13.2 11.7 87 1.1 NE 6 11 3 6 1027.3 1027.3 0.0
27/09:30am 12.0 12.0 11.2 95 0.4 ENE 2 4 1 2 1027.2 1027.2 0.0
27/09:00am 9.2 8.1 8.6 96 0.3 E 4 6 2 3 1026.9 1026.9 0.0
27/08:30am 7.4 6.3 6.8 96 0.3 E 2 4 1 2 1027.2 1027.2 0.0
27/08:00am 6.2 5.2 5.6 96 0.3 CALM 0 0 0 0 1027.4 1027.4 0.0
27/07:30am 5.2 3.6 4.6 96 0.3 ESE 2 4 1 2 1027.3 1027.3 0.0
27/07:00am 5.0 3.4 4.3 95 0.3 SE 2 2 1 1 1027.4 1027.4 0.0
27/06:30am 4.9 3.2 4.2 95 0.3 SSE 2 4 1 2 1027.6 1027.6 0.0
27/06:00am 5.5 4.4 4.9 96 0.3 CALM 0 4 0 2 1028.1 1028.1 0.0
27/05:30am 5.3 4.1 4.6 95 0.3 CALM 0 0 0 0 1027.7 1027.7 0.0
27/05:00am 5.6 4.5 4.9 95 0.3 CALM 0 0 0 0 1027.0 1027.0 0.0
27/04:30am 6.4 5.4 5.7 95 0.3 CALM 0 0 0 0 1026.9 1026.9 0.0
27/04:00am 6.5 5.5 5.8 95 0.3 CALM 0 2 0 1 1027.2 1027.2 0.0
27/03:30am 6.5 5.2 5.8 95 0.3 ESE 2 4 1 2 1027.3 1027.3 0.0
27/03:00am 7.3 5.8 6.6 95 0.3 ESE 4 4 2 2 1027.7 1027.7 0.0
27/02:30am 6.5 5.5 5.6 94 0.4 CALM 0 0 0 0 1027.6 1027.6 0.0
27/02:00am 7.8 7.1 6.9 94 0.4 CALM 0 0 0 0 1027.7 1027.7 0.0
27/01:30am 8.2 7.6 7.3 94 0.4 CALM 0 0 0 0 1027.7 1027.7 0.0
27/01:00am 8.8 7.5 7.7 93 0.5 SSW 4 6 2 3 1027.5 1027.5 0.0
27/12:30am 8.8 7.9 7.6 92 0.6 S 2 2 1 1 1027.6 1027.6 0.0
27/12:00am 10.9 9.7 9.7 92 0.6 S 6 6 3 3 1027.6 1027.6 0.0
 
Date/Time
WST
Temp
°C
App
Temp
°C
Dew
Point
°C
Rel
Hum
%
Delta-T
°C
Wind Press
QNH
hPa
Press
MSL
hPa
Rain since
9am
mm
Dir  Spd
km/h
Gust
km/h
Spd
kts
Gust
kts
26/11:30pm 11.6 11.3 10.0 90 0.8 S 2 4 1 2 1027.8 1027.8 0.0
26/11:00pm 12.2 11.9 10.1 87 1.1 ESE 2 4 1 2 1028.0 1028.0 0.0
26/10:30pm 13.3 13.3 11.0 86 1.2 SSE 2 4 1 2 1028.2 1028.2 0.0
26/10:00pm 13.7 13.8 11.6 87 1.1 S 2 6 1 3 1028.4 1028.4 0.0
26/09:30pm 14.0 13.8 11.7 86 1.2 S 4 6 2 3 1028.5 1028.5 0.0
26/09:00pm 14.3 13.7 11.8 85 1.3 SSW 6 7 3 4 1028.6 1028.6 0.0
26/08:30pm 14.5 13.9 11.7 83 1.5 SW 6 11 3 6 1028.7 1028.7 0.0
26/08:00pm 14.6 14.1 11.9 84 1.4 SW 6 9 3 5 1028.5 1028.5 0.0
26/07:30pm 14.8 14.3 12.1 84 1.5 SSW 6 9 3 5 1028.2 1028.2 0.0
26/07:00pm 14.9 14.4 12.0 83 1.6 SW 6 9 3 5 1028.0 1028.0 0.0
26/06:30pm 15.1 15.5 11.1 77 2.1 CALM 0 4 0 2 1027.8 1027.8 0.0
26/06:00pm 15.2 15.0 10.6 74 2.4 W 2 4 1 2 1027.6 1027.6 0.0
26/05:30pm 15.3 14.7 10.3 72 2.6 W 4 4 2 2 1027.4 1027.4 0.0
26/05:00pm 15.6 14.5 9.9 69 3.0 W 6 7 3 4 1027.2 1027.2 0.0
26/04:30pm 15.9 14.9 10.4 70 2.9 W 6 9 3 5 1027.3 1027.3 0.0
26/04:00pm 16.6 15.1 10.5 67 3.2 WNW 9 13 5 7 1027.3 1027.3 0.0
26/03:30pm 15.8 14.3 10.6 71 2.8 NW 9 13 5 7 1027.2 1027.2 0.0
26/03:00pm 16.5 15.6 11.4 72 2.7 NW 7 11 4 6 1027.2 1027.2 0.0
26/02:30pm 16.7 15.3 10.8 68 3.2 WNW 9 15 5 8 1027.2 1027.2 0.0
26/02:00pm 16.0 14.4 10.3 69 3.0 WNW 9 13 5 7 1027.3 1027.3 0.0
26/01:30pm 16.1 14.1 10.2 68 3.1 WNW 11 15 6 8 1027.4 1027.4 0.0
26/01:00pm 16.1 14.3 9.5 65 3.4 W 9 15 5 8 1027.6 1027.6 0.0
26/12:30pm 16.5 15.2 9.9 65 3.5 W 7 11 4 6 1027.9 1027.9 0.0
26/12:00pm 16.2 15.4 10.9 71 2.8 NNW 6 7 3 4 1028.3 1028.3 0.0
26/11:30am 15.8 15.0 11.2 74 2.5 NW 6 9 3 5 1028.7 1028.7 0.0
26/11:00am 14.4 14.8 11.2 81 1.7 CALM 0 4 0 2 1029.0 1029.0 0.0
26/10:30am 13.4 13.2 11.8 90 0.9 NE 4 7 2 4 1029.2 1029.2 0.0
26/10:00am 12.4 12.8 11.3 93 0.6 CALM 0 4 0 2 1029.2 1029.2 0.0
26/09:30am 11.4 10.9 10.6 95 0.4 NE 4 4 2 2 1029.0 1029.0 0.0
26/09:00am 10.5 9.8 9.9 96 0.3 NE 4 4 2 2 1028.9 1028.9 0.0
26/08:30am 9.1 8.4 8.5 96 0.3 ENE 2 6 1 3 1028.6 1028.6 0.0
26/08:00am 7.6 6.5 7.0 96 0.3 ESE 2 4 1 2 1028.4 1028.4 0.0
26/07:30am 5.9 4.8 5.2 95 0.3 CALM 0 0 0 0 1028.1 1028.1 0.0
26/07:00am 6.9 6.1 6.3 96 0.3 CALM 0 0 0 0 1027.9 1027.9 0.0
26/06:30am 6.8 5.9 6.2 96 0.3 CALM 0 0 0 0 1027.9 1027.9 0.0
26/06:00am 5.9 4.5 5.3 96 0.3 ESE 2 2 1 1 1027.5 1027.5 0.0
26/05:30am 4.7 3.4 4.0 95 0.3 CALM 0 0 0 0 1027.6 1027.6 0.0
26/05:00am 4.7 3.0 4.0 95 0.3 SE 2 4 1 2 1027.5 1027.5 0.0
26/04:30am 4.1 2.7 3.4 95 0.3 CALM 0 0 0 0 1027.5 1027.5 0.0
26/04:00am 5.1 3.9 4.4 95 0.3 CALM 0 0 0 0 1027.4 1027.4 0.0
26/03:30am 5.8 4.7 5.1 95 0.3 CALM 0 0 0 0 1027.3 1027.3 0.0
26/03:00am 5.9 4.8 5.0 94 0.4 CALM 0 0 0 0 1027.4 1027.4 0.0
26/02:30am 7.4 6.6 6.7 95 0.3 CALM 0 0 0 0 1027.3 1027.3 0.0
26/02:00am 7.3 5.8 6.6 95 0.3 ESE 4 4 2 2 1027.3 1027.3 0.0
26/01:30am 5.7 4.5 4.7 93 0.4 CALM 0 4 0 2 1027.4 1027.4 0.0
26/01:00am 8.3 7.7 7.4 94 0.4 CALM 0 0 0 0 1027.5 1027.5 0.0
26/12:30am 8.5 7.2 7.6 94 0.4 ENE 4 4 2 2 1027.6 1027.6 0.0
26/12:00am 8.9 8.4 7.8 93 0.5 CALM 0 0 0 0 1028.1 1028.1 0.0
 
Date/Time
WST
Temp
°C
App
Temp
°C
Dew
Point
°C
Rel
Hum
%
Delta-T
°C
Wind Press
QNH
hPa
Press
MSL
hPa
Rain since
9am
mm
Dir  Spd
km/h
Gust
km/h
Spd
kts
Gust
kts
25/11:30pm 9.2 8.4 8.1 93 0.5 E 2 4 1 2 1028.2 1028.2 0.0
25/11:00pm 10.1 9.1 9.0 93 0.5 NE 4 4 2 2 1027.9 1027.9 0.0
25/10:30pm 10.3 10.1 9.1 92 0.6 CALM 0 0 0 0 1028.1 1028.1 0.0
25/10:00pm 11.6 11.4 10.3 92 0.7 SSE 2 4 1 2 1028.3 1028.3 0.0
25/09:30pm 11.8 10.7 10.7 93 0.6 SW 7 13 4 7 1028.4 1028.4 0.0
25/09:00pm 9.6 9.2 8.2 91 0.7 CALM 0 0 0 0 1028.0 1028.0 0.0
25/08:30pm 10.4 9.4 8.7 89 0.8 S 4 4 2 2 1028.4 1028.4 0.0
25/08:00pm 11.7 10.8 9.3 85 1.2 SW 4 6 2 3 1027.8 1027.8 0.0
25/07:30pm 12.7 11.7 10.2 85 1.3 WSW 6 9 3 5 1027.3 1027.3 0.0
25/07:00pm 12.3 11.3 10.4 88 1.0 WSW 6 11 3 6 1027.1 1027.1 0.0
25/06:30pm 11.4 10.8 8.8 84 1.3 WSW 2 4 1 2 1027.2 1027.2 0.0
25/06:00pm 12.9 12.1 9.7 81 1.6 W 4 6 2 3 1027.0 1027.0 0.0
25/05:30pm 13.5 12.3 9.7 78 1.9 WNW 6 9 3 5 1026.9 1026.9 0.0
25/05:00pm 14.4 13.1 10.0 75 2.3 WNW 7 11 4 6 1026.9 1026.9 0.0

Other Formats:

Comma delimited format used in spreadsheet applications
http://www.bom.gov.au/fwo/IDW60801/IDW60801.94604.axf

JavaScript Object Notation format (JSON) in row-major order
http://www.bom.gov.au/fwo/IDW60801/IDW60801.94604.json